KPSF/PSF METAR and TAF weather

Enter ICAO airport designator
Station Type Date Time Source
KPSF METAR 2019/02/20 23:54 UTC NOAA

KPSF 202354Z AUTO 13004KT 1 1/2SM -SN BR FEW018 OVC029 M05/M07 A3025 RMK AO2 SNB08 SLP269 P0001 60001 T10501072 11033 21050 56030


Station Type Date Time Source
KPSF Decoded METAR 2019/02/20 23:54 UTC NOAA

PITTSFIELD MUNICIPAL AIRPORT , MA, United States (KPSF) 42-26N 073-17W 355M
Feb 20, 2019 - 06:54 PM EST / 2019.02.20 2354 UTC
Wind: from the SE (130 degrees) at 5 MPH (4 KT):0
Visibility: 1 1/2 mile(s):0
Sky conditions: overcast
Weather: light snow; mist
Precipitation last hour: 0.01 inches
Temperature: 23.0 F (-5.0 C)
Windchill: 15 F (-9 C):1
Dew Point: 19.0 F (-7.2 C)
Relative Humidity: 84%
Pressure (altimeter): 30.25 in. Hg (1024 hPa)
Pressure tendency: 0.09 inches (3.0 hPa) lower than three hours ago
ob: KPSF 202354Z AUTO 13004KT 1 1/2SM -SN BR FEW018 OVC029 M05/M07 A3025 RMK AO2 SNB08 SLP269 P0001 60001 T10501072 11033 21050 56030
cycle: 0

Station Type Date Time Source
KPSF TAF 2019/02/20 22:09 UTC NOAA

TAF
AMD KPSF 202207Z 2022/2118 VRB03KT P6SM VCSH SCT025 OVC050
TEMPO 2022/2024 3SM -SN BKN025 OVC050
FM210000 15006KT 3SM -SN OVC012
TEMPO 2100/2102 2SM -SN OVC008
FM210200 15006KT 3SM -PLSN BR OVC012 WS020/16035KT
FM210500 15006KT 3SM -FZRAPL BR OVC012 WS020/17040KT
FM211100 18008KT 4SM -DZ BR OVC012
FM211500 26010G18KT P6SM BKN015


Example: see airport list